x

Northern Hawaii One - 245nm Ne Of Honolulu Hi (51000) Wave Buoy

9:50am - Sun 24th Jul 2016 All times are HST. -10 hours from GMT.

  • Sig Wave height 7.5ft
  • Swell Direction
  • Peak Period 8s
  • Average Period 6s
  • Wind
    20mph, 22mph gusts
  • Sea Temp 78°f
  • Air Temp 78°f
  • Sea Pressure 1016.6mb
  • Northern Hawaii One - 245nm Ne Of Honolulu Hi
  • Northern Hawaii One - 245nm Ne Of Honolulu Hi

More Historic Weather Station data

Upgrade to MSW Pro to gain access to the past 30 days of data for over 8000 Wavebouys and Weather Stations around the globe.

Join Pro

Comparision Forecast

View Surf forecast
   
Sun 07/24 9:50am 7.5ft 8s 6s 20 22 mph 1016.6mb 78f 78f
8:50am 8ft 8s 6s 18 22 mph 1016.6mb 78f 78f
7:50am 7.5ft 8s 6s 20 25 mph 1016.2mb 78f 78f
6:50am 8ft 8s 7s 22 25 mph 1015.7mb 78f 77f
5:50am 7ft 8s 6s 22 25 mph 1015.1mb 78f 77f
4:50am 8ft 9s 6s 18 22 mph 1015mb 78f 77f
3:50am 7.5ft 8s 6s 20 25 mph 1015mb 78f 77f
2:50am 7ft 9s 6s 22 27 mph 1014.5mb 78f 77f
1:50am 7.5ft 8s 6s 22 25 mph 1015mb 78f 77f
12:50am 7ft 8s 6s 20 22 mph 1015.7mb 78f 76f
Sat 07/23 11:50pm 7.5ft 8s 6s 20 25 mph 1016.1mb 78f 77f
10:50pm 7.5ft 8s 6s 20 25 mph 1016.4mb 78f 78f
9:50pm 7.5ft 7s 6s 20 25 mph 1016.3mb 78f 78f
8:50pm 8ft 8s 6s 18 22 mph 1016.1mb 78f 78f
7:50pm 7ft 8s 6s 20 25 mph 1015.5mb 78f 77f
6:50pm 8ft 8s 7s 18 22 mph 1015.3mb 78f 76f
5:50pm 8ft 8s 6s 20 22 mph 1015mb 78f 77f
4:50pm 8ft 8s 6s 20 25 mph 1014.8mb 78f 78f
3:50pm 8.5ft 9s 6s 20 25 mph 1014.8mb 78f 78f
2:50pm 8ft 8s 6s 20 22 mph 1015mb 78f 78f
1:50pm 9ft 8s 7s 22 25 mph 1015.2mb 78f 77f
12:50pm 9ft 9s 6s 20 25 mph 1015.7mb 78f 77f
11:50am 9ft 9s 7s 20 25 mph 1015.9mb 78f 77f
10:50am 8.5ft 9s 7s 22 25 mph 1016.1mb 78f 77f
9:50am 8ft 9s 6s 22 25 mph 1016mb 78f 76f
8:50am 9ft 9s 6s 22 27 mph 1015.9mb 78f 77f
7:50am 9ft 8s 7s 22 27 mph 1015.7mb 78f 76f
6:50am 9ft 9s 6s 22 27 mph 1015.4mb 78f 76f
5:50am 8ft 10s 6s 20 27 mph 1015.1mb 78f 76f
4:50am 8ft 9s 6s 22 27 mph 1014.9mb 78f 76f
3:50am 8.5ft 9s 7s 22 25 mph 1014.7mb 78f 76f
2:50am 9ft 10s 7s 20 25 mph 1014.7mb 78f 76f
1:50am 9ft 9s 7s 22 27 mph 1015mb 78f 76f
12:50am 8.5ft 9s 7s 20 25 mph 1015.8mb 78f 76f
Fri 07/22 11:50pm 9ft 9s 7s 20 25 mph 1016.1mb 78f 76f
10:50pm 9ft 10s 7s 20 25 mph 1016.6mb 78f 76f
9:50pm 9ft 10s 7s 18 22 mph 1016.8mb 78f 76f
8:50pm 9ft 10s 7s 20 22 mph 1016.5mb 78f 76f
7:50pm 9ft 11s 7s 18 22 mph 1016.2mb 78f 76f
6:50pm 9ft 11s 7s 20 25 mph 1015.9mb 78f 76f
5:50pm 10ft 11s 7s 20 25 mph 1015.7mb 78f 76f
4:50pm 9ft 11s 7s 18 25 mph 1015.6mb 78f 76f
3:50pm 9ft 10s 7s 20 22 mph 1015.8mb 78f 76f
2:50pm 10.5ft 9s 7s 18 22 mph 1016.2mb 78f 76f
1:50pm 10.5ft 10s 7s 20 22 mph 1016.3mb 78f 76f
12:50pm 10ft 9s 7s 18 22 mph 1016.6mb 78f 76f
11:50am 10ft 9s 7s 20 25 mph 1017.1mb 78f 76f
10:50am 10ft 10s 7s 20 27 mph 1017.2mb 78f 77f
9:50am 10ft 10s 7s 22 27 mph 1017.2mb 78f 77f
7:50am 10ft 10s 7s 20 27 mph 1017mb 78f 77f
6:50am 11ft 11s 7s 20 25 mph 1017mb 78f 76f
5:50am 10.5ft 11s 7s 22 27 mph 1016.8mb 78f 76f
4:50am 11ft 10s 7s 22 27 mph 1016.5mb 78f 76f
3:50am 10ft 8s 7s 20 25 mph 1016.1mb 78f 76f
2:50am 10.5ft 9s 7s 22 27 mph 1016.3mb 78f 76f
1:50am 11ft 8s 7s 22 27 mph 1016.6mb 78f 77f
12:50am 11ft 9s 7s 25 29 mph 1017mb 78f 76f
Thu 07/21 11:50pm 10ft 9s 7s 25 29 mph 1017.7mb 78f 76f
10:50pm 10ft 10s 7s 25 31 mph 1018.1mb 78f 75f
9:50pm 10ft 8s 7s 25 29 mph 1018.2mb 78f 76f
8:50pm 9ft 9s 7s 22 29 mph 1017.9mb 78f 77f
7:50pm 10ft 9s 7s 27 31 mph 1017.6mb 78f 76f
6:50pm 10ft 9s 7s 27 31 mph 1017.2mb 78f 76f
5:50pm 10ft 8s 7s 25 29 mph 1017mb 78f 76f
4:50pm 9.5ft 9s 7s 22 27 mph 1017mb 78f 77f
3:50pm 10ft 9s 7s 22 27 mph 1017.4mb 78f 77f
2:50pm 10ft 9s 7s 22 27 mph 1017.7mb 78f 77f
1:50pm 10ft 8s 7s 22 29 mph 1018.2mb 78f 77f
12:50pm 9.5ft 8s 7s 22 29 mph 1018.5mb 78f 77f
11:50am 9.5ft 9s 7s 22 27 mph 1019.1mb 78f 76f
10:50am 9.5ft 8s 7s 22 27 mph 1019.2mb 78f 77f
9:50am 9ft 8s 6s 22 29 mph 1019.4mb 78f 76f
8:50am 9ft 9s 6s 29 36 mph 1019.2mb 78f 74f
7:50am 9ft 8s 6s 22 31 mph 1019.1mb 78f 74f
6:50am 8ft 9s 6s 22 27 mph 1018.6mb 78f 77f
5:50am 8.5ft 9s 6s 22 25 mph 1018.3mb 78f 76f
4:50am 8ft 8s 6s 22 27 mph 1018.1mb 78f 76f
3:50am 7.5ft 9s 6s 22 25 mph 1018.2mb 78f 76f
2:50am 8ft 9s 7s 22 27 mph 1018.5mb 78f 76f
1:50am 7.5ft 9s 6s 18 22 mph 1019mb 78f 76f
12:50am 8.5ft 8s 7s 20 25 mph 1019.4mb 78f 76f
Wed 07/20 11:50pm 8ft 8s 6s 20 22 mph 1019.9mb 78f 77f
10:50pm 8ft 8s 7s 20 25 mph 1020.2mb 78f 77f
9:50pm 8ft 8s 6s 20 25 mph 1020.4mb 78f 77f